createdAt,value
2022-10-11T00:01:16.594Z,10.18
2022-10-11T00:03:46.421Z,13.40
2022-10-11T00:07:05.796Z,17.23
2022-10-11T00:09:32.217Z,19.05
2022-10-11T00:11:58.689Z,11.48
2022-10-11T00:14:26.395Z,11.77
2022-10-11T00:16:53.727Z,13.07
2022-10-11T00:19:20.728Z,13.95
2022-10-11T00:21:47.438Z,16.42
2022-10-11T00:24:15.949Z,14.82
2022-10-11T00:26:46.560Z,14.52
2022-10-11T00:29:13.601Z,15.35
2022-10-11T00:31:40.347Z,12.93
2022-10-11T00:34:08.245Z,18.58
2022-10-11T00:36:34.688Z,13.35
2022-10-11T00:39:00.998Z,20.08
2022-10-11T00:41:27.403Z,15.45
2022-10-11T00:44:16.484Z,16.67
2022-10-11T00:46:51.793Z,16.45
2022-10-11T00:49:33.542Z,20.02
2022-10-11T00:52:11.520Z,21.92
2022-10-11T00:54:41.880Z,14.93
2022-10-11T00:57:12.052Z,16.08
2022-10-11T00:59:43.480Z,15.82
2022-10-11T01:02:11.160Z,18.77
2022-10-11T01:04:37.539Z,16.88
2022-10-11T01:07:04.007Z,16.88
2022-10-11T01:09:31.052Z,14.95
2022-10-11T01:12:01.176Z,14.18
2022-10-11T01:14:40.494Z,18.10
2022-10-11T01:17:22.211Z,15.63
2022-10-11T01:20:03.916Z,14.95
2022-10-11T01:22:55.207Z,14.73
2022-10-11T01:25:49.670Z,18.80
2022-10-11T01:28:19.146Z,15.10
2022-10-11T01:30:46.332Z,16.58
2022-10-11T01:33:30.623Z,17.30
2022-10-11T01:36:09.001Z,18.98
2022-10-11T01:38:44.220Z,18.02
2022-10-11T01:41:19.259Z,20.55
2022-10-11T01:43:46.160Z,16.95
2022-10-11T01:46:13.309Z,17.35
2022-10-11T01:48:55.220Z,22.65
2022-10-11T01:51:25.772Z,20.25
2022-10-11T01:54:10.442Z,16.10
2022-10-11T01:57:13.121Z,21.13
2022-10-11T02:00:01.172Z,14.02
2022-10-11T02:03:01.551Z,13.82
2022-10-11T02:05:47.000Z,10.00
2022-10-11T02:08:19.416Z,10.10
2022-10-11T02:10:59.251Z,10.18
2022-10-11T02:13:38.037Z,11.68
2022-10-11T02:16:11.186Z,10.95
2022-10-11T02:18:41.768Z,8.77
2022-10-11T02:21:13.131Z,14.85
2022-10-11T02:23:45.591Z,12.98
2022-10-11T02:26:13.660Z,10.48
2022-10-11T02:28:43.018Z,12.30
2022-10-11T02:31:11.199Z,15.00
2022-10-11T02:33:44.732Z,13.68
2022-10-11T02:36:19.306Z,12.27
2022-10-11T02:38:52.925Z,16.00
2022-10-11T02:41:32.352Z,10.52
2022-10-11T02:44:17.112Z,9.95
2022-10-11T02:46:45.495Z,11.65
2022-10-11T02:49:13.257Z,10.07
2022-10-11T02:51:39.799Z,10.50
2022-10-11T02:54:06.551Z,11.88
2022-10-11T02:56:32.999Z,9.93
2022-10-11T02:58:59.705Z,8.50
2022-10-11T03:01:26.222Z,12.18
2022-10-11T03:03:52.708Z,10.18
2022-10-11T03:06:19.222Z,8.90
2022-10-11T03:08:45.595Z,9.48
2022-10-11T03:11:11.891Z,9.48
2022-10-11T03:13:38.256Z,10.85
2022-10-11T03:16:04.953Z,10.05
2022-10-11T03:18:31.562Z,9.98
2022-10-11T03:20:58.007Z,10.43
2022-10-11T03:23:24.377Z,6.95
2022-10-11T03:25:51.978Z,10.75
2022-10-11T03:28:18.874Z,8.35
2022-10-11T03:30:48.329Z,6.93
2022-10-11T03:33:15.618Z,7.85
2022-10-11T03:35:48.355Z,7.60
2022-10-11T03:38:18.255Z,7.68
2022-10-11T03:40:44.852Z,8.40
2022-10-11T03:43:11.420Z,5.35
2022-10-11T03:45:38.466Z,8.90
2022-10-11T03:48:05.316Z,6.40
2022-10-11T03:50:31.719Z,8.52
2022-10-11T03:52:58.251Z,5.85
2022-10-11T03:55:24.704Z,6.53
2022-10-11T03:57:51.041Z,4.95
2022-10-11T04:00:17.573Z,5.80
2022-10-11T04:02:44.016Z,4.18
2022-10-11T04:05:11.032Z,4.75
2022-10-11T04:07:37.414Z,7.20
2022-10-11T04:10:04.137Z,4.38
2022-10-11T04:12:30.562Z,6.80
2022-10-11T04:14:56.873Z,7.70
2022-10-11T04:17:23.178Z,9.02
2022-10-11T04:19:49.665Z,5.22
2022-10-11T04:22:16.711Z,8.48
2022-10-11T04:24:43.311Z,11.02
2022-10-11T04:27:10.264Z,10.20
2022-10-11T04:29:36.576Z,5.38
2022-10-11T04:32:03.143Z,10.35
2022-10-11T04:34:29.519Z,6.93
2022-10-11T04:36:55.827Z,8.52
2022-10-11T04:39:22.232Z,10.05
2022-10-11T04:41:48.645Z,9.68
2022-10-11T04:44:14.995Z,11.75
2022-10-11T04:46:41.431Z,8.52
2022-10-11T04:49:07.735Z,7.10
2022-10-11T04:51:34.137Z,8.13
2022-10-11T04:54:00.537Z,8.70
2022-10-11T04:56:26.846Z,5.57
2022-10-11T04:58:54.652Z,5.82
2022-10-11T05:01:21.411Z,6.75
2022-10-11T05:03:48.440Z,6.35
2022-10-11T05:06:14.815Z,14.27
2022-10-11T05:08:41.285Z,12.70
2022-10-11T05:11:11.773Z,8.52
2022-10-11T05:13:38.664Z,7.20
2022-10-11T05:16:10.322Z,10.50
2022-10-11T05:18:37.512Z,5.40
2022-10-11T05:21:07.416Z,12.02
2022-10-11T05:23:35.521Z,6.60
2022-10-11T05:26:03.077Z,4.97
2022-10-11T05:28:29.802Z,6.80
2022-10-11T05:30:56.332Z,4.40
2022-10-11T05:33:23.107Z,5.07
2022-10-11T05:35:49.576Z,6.85
2022-10-11T05:38:16.487Z,3.90
2022-10-11T05:40:43.140Z,9.70
2022-10-11T05:43:11.824Z,4.00
2022-10-11T05:45:39.568Z,4.32
2022-10-11T05:48:06.566Z,6.78
2022-10-11T05:50:33.399Z,5.88
2022-10-11T05:52:59.887Z,4.45
2022-10-11T05:55:26.296Z,3.25
2022-10-11T05:57:57.375Z,6.35
2022-10-11T06:00:24.441Z,5.57
2022-10-11T06:02:50.798Z,9.70
2022-10-11T06:05:17.199Z,7.35
2022-10-11T06:07:43.931Z,6.82
2022-10-11T06:10:10.931Z,6.82
2022-10-11T06:12:37.478Z,8.10
2022-10-11T06:15:04.941Z,5.88
2022-10-11T06:17:31.572Z,6.88
2022-10-11T06:19:57.935Z,8.43
2022-10-11T06:22:24.452Z,4.43
2022-10-11T06:24:50.836Z,5.60
2022-10-11T06:27:17.251Z,8.15
2022-10-11T06:29:43.683Z,6.53
2022-10-11T06:32:10.036Z,4.60
2022-10-11T06:34:36.419Z,7.10
2022-10-11T06:37:02.814Z,10.43
2022-10-11T06:39:29.425Z,6.57
2022-10-11T06:41:55.791Z,10.07
2022-10-11T06:44:22.380Z,4.57
2022-10-11T06:46:48.757Z,9.20
2022-10-11T06:49:19.332Z,4.50
2022-10-11T06:51:48.736Z,8.40
2022-10-11T06:54:15.136Z,7.18
2022-10-11T06:56:41.504Z,12.90
2022-10-11T06:59:08.961Z,9.07
2022-10-11T07:01:35.384Z,7.05
2022-10-11T07:07:20.519Z,7.40
2022-10-11T07:09:46.919Z,5.80
2022-10-11T07:12:13.358Z,5.88
2022-10-11T07:14:39.737Z,4.22
2022-10-11T07:17:06.211Z,4.18
2022-10-11T07:19:32.675Z,10.52
2022-10-11T07:21:59.060Z,8.75
2022-10-11T07:24:25.447Z,9.75
2022-10-11T07:26:51.825Z,4.80
2022-10-11T07:29:18.319Z,12.45
2022-10-11T07:31:45.018Z,8.60
2022-10-11T07:34:11.500Z,8.65
2022-10-11T07:36:37.976Z,4.10
2022-10-11T07:39:06.988Z,5.40
2022-10-11T07:41:33.837Z,8.60
2022-10-11T07:44:01.011Z,13.60
2022-10-11T07:46:27.386Z,11.00
2022-10-11T07:48:54.456Z,10.45
2022-10-11T07:51:22.324Z,5.55
2022-10-11T07:53:50.859Z,5.50
2022-10-11T07:56:20.688Z,4.07
2022-10-11T07:58:57.085Z,6.35
2022-10-11T08:01:23.684Z,5.85
2022-10-11T08:03:50.990Z,9.45
2022-10-11T08:06:19.775Z,7.63
2022-10-11T08:08:46.505Z,10.18
2022-10-11T08:11:20.643Z,4.65
2022-10-11T08:13:48.158Z,13.55
2022-10-11T08:16:14.749Z,6.38
2022-10-11T08:18:41.458Z,6.63
2022-10-11T08:21:13.457Z,6.18
2022-10-11T08:23:42.725Z,9.00
2022-10-11T08:26:09.972Z,7.90
2022-10-11T08:28:38.420Z,7.45
2022-10-11T08:31:05.617Z,6.68
2022-10-11T08:33:32.095Z,5.75
2022-10-11T08:35:58.883Z,9.35
2022-10-11T08:38:25.381Z,11.98
2022-10-11T08:40:57.856Z,6.47
2022-10-11T08:43:30.946Z,6.65
2022-10-11T08:46:03.018Z,4.53
2022-10-11T08:48:37.727Z,6.20
2022-10-11T08:51:22.549Z,6.15
2022-10-11T08:53:57.939Z,10.32
2022-10-11T08:56:26.573Z,5.25
2022-10-11T08:59:02.912Z,8.00
2022-10-11T09:01:31.139Z,8.75
2022-10-11T09:04:00.954Z,9.40
2022-10-11T09:06:40.042Z,12.13
2022-10-11T09:09:18.425Z,7.70
2022-10-11T09:12:23.061Z,7.80
2022-10-11T09:15:12.872Z,8.65
2022-10-11T09:18:13.612Z,10.93
2022-10-11T09:21:14.588Z,5.63
2022-10-11T09:24:07.200Z,12.73
2022-10-11T09:26:44.020Z,6.97
2022-10-11T09:29:43.950Z,9.15
2022-10-11T09:32:16.767Z,9.98
2022-10-11T09:34:45.409Z,6.82
2022-10-11T09:37:27.885Z,9.63
2022-10-11T09:40:02.101Z,8.02
2022-10-11T09:42:28.435Z,5.18
2022-10-11T09:44:57.169Z,7.22
2022-10-11T09:47:29.284Z,6.70
2022-10-11T09:50:14.182Z,10.18
2022-10-11T09:52:51.023Z,19.27
2022-10-11T09:55:50.813Z,9.30
2022-10-11T09:58:32.542Z,5.63
2022-10-11T10:01:11.183Z,11.15
2022-10-11T10:03:44.373Z,9.70
2022-10-11T10:06:25.863Z,9.55
2022-10-11T10:08:52.906Z,9.98
2022-10-11T10:11:19.595Z,4.82
2022-10-11T10:13:52.227Z,6.68
2022-10-11T10:16:25.873Z,6.68
2022-10-11T10:19:06.074Z,8.20
2022-10-11T10:21:46.624Z,5.72
2022-10-11T10:24:27.433Z,4.93
2022-10-11T10:27:18.021Z,4.80
2022-10-11T10:30:01.686Z,7.80
2022-10-11T10:32:34.360Z,8.32
2022-10-11T10:35:35.338Z,6.40
2022-10-11T10:38:16.528Z,7.65
2022-10-11T10:40:47.651Z,6.97
2022-10-11T10:43:17.287Z,4.63
2022-10-11T10:46:03.444Z,7.00
2022-10-11T10:49:23.291Z,4.25
2022-10-11T10:51:37.915Z,5.55
2022-10-11T10:54:41.899Z,6.90
2022-10-11T10:57:18.990Z,5.50
2022-10-11T11:00:00.767Z,4.82
2022-10-11T11:02:41.671Z,8.45
2022-10-11T11:05:43.687Z,8.20
2022-10-11T11:08:10.019Z,2.03
2022-10-11T11:10:55.759Z,3.30
2022-10-11T11:17:10.571Z,5.03
2022-10-11T11:20:03.120Z,6.75
2022-10-11T11:22:38.279Z,3.78
2022-10-11T11:25:19.495Z,3.13
2022-10-11T11:28:04.636Z,5.25
2022-10-11T11:30:55.292Z,3.05
2022-10-11T11:33:33.438Z,2.80
2022-10-11T11:36:05.908Z,4.13
2022-10-11T11:38:38.867Z,4.10
2022-10-11T11:41:24.036Z,2.88
2022-10-11T11:43:55.047Z,2.58
2022-10-11T11:46:30.088Z,6.00
2022-10-11T11:49:00.508Z,2.80
2022-10-11T11:51:42.729Z,3.17
2022-10-11T11:54:53.900Z,2.42
2022-10-11T11:57:27.367Z,3.10
2022-10-11T11:59:53.615Z,3.38
2022-10-11T12:02:29.897Z,6.75
2022-10-11T12:04:57.289Z,4.00
2022-10-11T12:07:26.415Z,3.30
2022-10-11T12:10:13.986Z,3.05
2022-10-11T12:12:40.956Z,3.05
2022-10-11T12:15:10.162Z,6.80
2022-10-11T12:17:54.716Z,5.78
2022-10-11T12:20:23.688Z,4.85
2022-10-11T12:22:49.922Z,5.40
2022-10-11T12:25:18.551Z,4.40
2022-10-11T12:27:48.220Z,6.32
2022-10-11T12:30:53.401Z,2.80
2022-10-11T12:33:24.452Z,2.83
2022-10-11T12:35:53.564Z,2.78
2022-10-11T12:38:33.863Z,3.53
2022-10-11T12:41:08.942Z,4.90
2022-10-11T12:43:56.900Z,5.95
2022-10-11T12:46:29.387Z,6.10
2022-10-11T12:49:13.941Z,5.30
2022-10-11T12:52:02.091Z,4.40
2022-10-11T12:54:55.832Z,9.65
2022-10-11T12:57:45.918Z,6.75
2022-10-11T13:00:28.993Z,5.82
2022-10-11T13:03:27.241Z,2.80
2022-10-11T13:06:01.398Z,5.18
2022-10-11T13:08:36.145Z,2.22
2022-10-11T13:11:06.580Z,2.65
2022-10-11T13:13:45.095Z,3.15
2022-10-11T13:16:18.189Z,2.33
2022-10-11T13:18:47.375Z,3.08
2022-10-11T13:21:30.278Z,4.80
2022-10-11T13:24:17.444Z,4.68
2022-10-11T13:26:46.479Z,3.67
2022-10-11T13:29:25.956Z,2.42
2022-10-11T13:31:52.614Z,3.28
2022-10-11T13:34:23.179Z,4.00
2022-10-11T13:36:56.348Z,4.93
2022-10-11T13:39:31.300Z,6.80
2022-10-11T13:41:59.354Z,3.75
2022-10-11T13:44:26.074Z,6.28
2022-10-11T13:46:53.336Z,4.38
2022-10-11T13:49:27.329Z,1.80
2022-10-11T13:52:02.297Z,8.77
2022-10-11T13:54:54.402Z,2.90
2022-10-11T13:57:24.235Z,5.43
2022-10-11T13:59:50.586Z,3.35
2022-10-11T14:02:21.346Z,4.18
2022-10-11T14:04:48.907Z,3.42
2022-10-11T14:07:35.550Z,3.45
2022-10-11T14:10:02.471Z,1.98
2022-10-11T14:12:31.912Z,3.28
2022-10-11T14:15:00.213Z,3.42
2022-10-11T14:17:45.762Z,2.63
2022-10-11T14:20:15.434Z,2.13
2022-10-11T14:22:41.779Z,2.63
2022-10-11T14:25:08.104Z,4.60
2022-10-11T14:27:34.699Z,3.80
2022-10-11T14:30:24.139Z,4.53
2022-10-11T14:32:49.791Z,6.05
2022-10-11T14:35:18.971Z,2.63
2022-10-11T14:37:45.857Z,1.88
2022-10-11T14:40:15.482Z,6.30
2022-10-11T14:42:41.841Z,4.57
2022-10-11T14:45:08.733Z,7.47
2022-10-11T14:47:39.354Z,5.30
2022-10-11T14:50:44.448Z,2.15
2022-10-11T14:53:11.644Z,5.07
2022-10-11T14:55:39.749Z,6.32
2022-10-11T14:58:07.508Z,5.15
2022-10-11T15:00:34.990Z,8.35
2022-10-11T15:03:03.712Z,6.90
2022-10-11T15:05:33.947Z,1.95
2022-10-11T15:08:01.843Z,5.95
2022-10-11T15:10:39.857Z,5.53
2022-10-11T15:13:07.393Z,3.25
2022-10-11T15:15:37.693Z,2.25
2022-10-11T15:18:06.074Z,5.50
2022-10-11T15:20:38.800Z,3.50
2022-10-11T15:23:07.655Z,3.75
2022-10-11T15:25:34.565Z,4.55
2022-10-11T15:28:01.203Z,2.63
2022-10-11T15:30:37.079Z,2.53
2022-10-11T15:33:06.841Z,3.30
2022-10-11T15:35:33.271Z,4.45
2022-10-11T15:38:00.163Z,3.15
2022-10-11T15:40:35.403Z,3.80
2022-10-11T15:43:02.463Z,1.80
2022-10-11T15:45:29.851Z,5.10
2022-10-11T15:47:56.169Z,3.38
2022-10-11T15:50:34.966Z,5.60
2022-10-11T15:53:05.758Z,3.90
2022-10-11T15:55:33.838Z,2.42
2022-10-11T15:58:01.471Z,3.55
2022-10-11T16:00:28.640Z,2.70
2022-10-11T16:02:55.568Z,6.40
2022-10-11T16:05:24.614Z,3.17
2022-10-11T16:07:51.779Z,3.00
2022-10-11T16:10:18.600Z,3.40
2022-10-11T16:12:44.893Z,3.55
2022-10-11T16:15:12.376Z,3.67
2022-10-11T16:17:38.772Z,3.85
2022-10-11T16:20:06.837Z,4.93
2022-10-11T16:22:34.324Z,3.65
2022-10-11T16:25:02.116Z,5.13
2022-10-11T16:27:28.447Z,2.35
2022-10-11T16:29:54.753Z,3.00
2022-10-11T16:32:21.932Z,2.95
2022-10-11T16:34:48.265Z,2.47
2022-10-11T16:37:14.588Z,2.58
2022-10-11T16:39:40.991Z,3.50
2022-10-11T16:42:07.503Z,5.18
2022-10-11T16:44:33.971Z,6.88
2022-10-11T16:47:00.493Z,4.35
2022-10-11T16:49:28.423Z,4.47
2022-10-11T16:51:56.364Z,4.07
2022-10-11T16:54:22.934Z,7.43
2022-10-11T16:56:49.784Z,8.00
2022-10-11T16:59:16.521Z,3.15
2022-10-11T17:01:44.914Z,4.18
2022-10-11T17:04:12.589Z,5.65
2022-10-11T17:06:40.227Z,7.10
2022-10-11T17:09:07.204Z,3.30
2022-10-11T17:11:34.023Z,4.57
2022-10-11T17:14:01.279Z,3.97
2022-10-11T17:16:28.167Z,6.28
2022-10-11T17:18:54.467Z,3.85
2022-10-11T17:21:21.902Z,4.35
2022-10-11T17:23:49.036Z,3.00
2022-10-11T17:26:26.824Z,4.00
2022-10-11T17:28:55.104Z,5.32
2022-10-11T17:31:21.575Z,5.38
2022-10-11T17:33:48.136Z,3.17
2022-10-11T17:36:19.308Z,8.05
2022-10-11T17:38:45.675Z,3.88
2022-10-11T17:41:12.196Z,5.75
2022-10-11T17:43:38.938Z,4.03
2022-10-11T17:46:06.612Z,4.72
2022-10-11T17:48:36.479Z,5.78
2022-10-11T17:51:08.370Z,7.55
2022-10-11T17:53:35.536Z,6.60
2022-10-11T17:56:28.206Z,6.53
2022-10-11T17:58:57.556Z,4.72
2022-10-11T18:01:27.698Z,5.82
2022-10-11T18:04:02.008Z,5.35
2022-10-11T18:06:31.092Z,5.40
2022-10-11T18:09:00.576Z,3.95
2022-10-11T18:11:26.999Z,4.10
2022-10-11T18:13:53.537Z,7.00
2022-10-11T18:16:22.626Z,4.97
2022-10-11T18:18:49.242Z,7.88
2022-10-11T18:21:18.232Z,3.72
2022-10-11T18:23:44.989Z,3.45
2022-10-11T18:26:13.749Z,3.67
2022-10-11T18:28:40.909Z,4.18
2022-10-11T18:31:12.979Z,9.18
2022-10-11T18:33:41.259Z,5.60
2022-10-11T18:36:09.286Z,4.38
2022-10-11T18:38:37.801Z,3.90
2022-10-11T18:41:09.316Z,5.43
2022-10-11T18:43:36.239Z,4.15
2022-10-11T18:46:08.531Z,4.45
2022-10-11T18:48:35.004Z,8.00
2022-10-11T18:51:07.056Z,4.70
2022-10-11T18:53:34.756Z,7.03
2022-10-11T18:56:02.433Z,5.72
2022-10-11T18:58:30.290Z,9.25
2022-10-11T19:01:04.277Z,9.80
2022-10-11T19:03:34.948Z,5.43
2022-10-11T19:06:07.214Z,5.70
2022-10-11T19:08:33.968Z,5.15
2022-10-11T19:11:08.039Z,5.07
2022-10-11T19:13:35.021Z,7.35
2022-10-11T19:16:06.959Z,5.53
2022-10-11T19:18:33.863Z,8.35
2022-10-11T19:21:05.662Z,10.32
2022-10-11T19:23:34.404Z,7.32
2022-10-11T19:26:01.872Z,7.60
2022-10-11T19:28:29.874Z,6.03
2022-10-11T19:31:05.040Z,5.18
2022-10-11T19:33:32.811Z,6.97
2022-10-11T19:36:02.436Z,8.70
2022-10-11T19:38:29.868Z,4.93
2022-10-11T19:40:56.246Z,11.52
2022-10-11T19:43:23.013Z,7.55
2022-10-11T19:45:49.630Z,4.93
2022-10-11T19:48:15.953Z,6.57
2022-10-11T19:50:42.311Z,5.95
2022-10-11T19:53:08.702Z,8.15
2022-10-11T19:55:35.283Z,7.30
2022-10-11T19:58:07.338Z,7.35
2022-10-11T20:00:34.956Z,9.32
2022-10-11T20:03:01.241Z,6.35
2022-10-11T20:05:27.544Z,6.70
2022-10-11T20:07:53.840Z,6.40
2022-10-11T20:10:20.159Z,7.00
2022-10-11T20:12:46.480Z,7.85
2022-10-11T20:15:12.802Z,3.55
2022-10-11T20:17:48.260Z,4.85
2022-10-11T20:22:41.544Z,4.78
2022-10-11T20:25:08.299Z,5.35
2022-10-11T20:27:34.784Z,6.45
2022-10-11T20:30:01.398Z,6.75
2022-10-11T20:32:28.307Z,4.53
2022-10-11T20:34:54.588Z,8.52
2022-10-11T20:37:20.904Z,7.30
2022-10-11T20:39:47.184Z,4.80
2022-10-11T20:42:13.468Z,5.85
2022-10-11T20:44:39.931Z,8.20
2022-10-11T20:47:06.209Z,7.63
2022-10-11T20:49:32.586Z,6.93
2022-10-11T20:51:58.979Z,4.22
2022-10-11T20:54:25.420Z,7.38
2022-10-11T20:56:51.715Z,10.23
2022-10-11T20:59:18.003Z,5.38
2022-10-11T21:01:44.417Z,4.97
2022-10-11T21:04:17.609Z,9.60
2022-10-11T21:06:44.019Z,9.32
2022-10-11T21:09:12.657Z,9.18
2022-10-11T21:11:41.972Z,6.85
2022-10-11T21:14:08.296Z,6.28
2022-10-11T21:16:34.820Z,5.93
2022-10-11T21:19:02.124Z,10.38
2022-10-11T21:21:29.503Z,6.05
2022-10-11T21:23:57.636Z,5.45
2022-10-11T21:26:24.380Z,4.22
2022-10-11T21:28:51.669Z,4.63
2022-10-11T21:31:20.107Z,6.43
2022-10-11T21:33:46.501Z,7.47
2022-10-11T21:36:21.644Z,5.55
2022-10-11T21:38:49.165Z,5.65
2022-10-11T21:41:26.514Z,8.43
2022-10-11T21:43:53.082Z,6.32
2022-10-11T21:46:41.732Z,5.97
2022-10-11T21:49:11.846Z,6.00
2022-10-11T21:51:38.171Z,4.90
2022-10-11T21:54:05.161Z,6.07
2022-10-11T21:56:31.563Z,5.00
2022-10-11T21:58:57.936Z,5.30
2022-10-11T22:01:24.538Z,8.02
2022-10-11T22:03:52.595Z,8.23
2022-10-11T22:06:18.972Z,10.07
2022-10-11T22:08:45.534Z,7.35
2022-10-11T22:11:11.933Z,11.63
2022-10-11T22:13:38.313Z,7.97
2022-10-11T22:16:07.026Z,6.95
2022-10-11T22:18:33.969Z,7.72
2022-10-11T22:21:21.493Z,10.02
2022-10-11T22:23:50.311Z,3.67
2022-10-11T22:26:21.300Z,7.90
2022-10-11T22:28:47.960Z,9.20
2022-10-11T22:31:16.553Z,8.35
2022-10-11T22:33:42.968Z,8.55
2022-10-11T22:36:11.840Z,7.35
2022-10-11T22:38:40.888Z,6.32
2022-10-11T22:41:07.904Z,7.18
2022-10-11T22:43:34.436Z,4.45
2022-10-11T22:46:01.174Z,5.80
2022-10-11T22:48:27.613Z,5.45
2022-10-11T22:50:54.175Z,7.55
2022-10-11T22:53:21.016Z,9.23
2022-10-11T22:55:47.471Z,6.00
2022-10-11T22:58:14.260Z,6.75
2022-10-11T23:00:40.571Z,9.13
2022-10-11T23:03:09.848Z,8.65
2022-10-11T23:05:36.908Z,8.40
2022-10-11T23:08:03.387Z,8.50
2022-10-11T23:10:29.828Z,8.05
2022-10-11T23:12:56.099Z,8.65
2022-10-11T23:15:22.544Z,8.90
2022-10-11T23:17:48.851Z,9.07
2022-10-11T23:20:15.288Z,4.20
2022-10-11T23:22:41.616Z,6.10
2022-10-11T23:25:08.439Z,6.70
2022-10-11T23:27:34.920Z,6.25
2022-10-11T23:30:01.452Z,4.93
2022-10-11T23:32:27.802Z,8.40
2022-10-11T23:34:54.055Z,4.75
2022-10-11T23:37:20.544Z,5.50
2022-10-11T23:39:46.902Z,7.38
2022-10-11T23:42:13.525Z,5.55
2022-10-11T23:44:40.071Z,5.80
2022-10-11T23:47:06.361Z,5.38
2022-10-11T23:49:32.659Z,5.97
2022-10-11T23:51:59.019Z,6.05
2022-10-11T23:54:25.335Z,6.80
2022-10-11T23:56:51.632Z,8.35
2022-10-11T23:59:17.963Z,9.65
